Time;durP1;ratioP1;P1;durP2;ratioP2;P2;SDS_P1;SDS_P2;PMS_P1;PMS_P2;Temp;Humidity;BMP_temperature;BMP_pressure;BME280_temperature;BME280_humidity;BME280_pressure;Samples;Min_cycle;Max_cycle;Signal;HPM_P1;HPM_P2
2022/03/06 00:01:25;;;;;;;3.37;2.00;;;;;;;-0.01;66.77;100722.69;1711720;83;21405;-75
2022/03/06 00:03:51;;;;;;;3.67;2.45;;;;;;;0.01;66.87;100723.97;1711039;84;22209;-74
2022/03/06 00:06:19;;;;;;;4.78;2.72;;;;;;;0.02;66.89;100730.02;1656629;85;21614;-74
2022/03/06 00:08:46;;;;;;;3.17;2.10;;;;;;;0.03;67.03;100726.06;1676647;85;20969;-75
2022/03/06 00:11:15;;;;;;;3.25;2.40;;;;;;;0.03;67.18;100727.36;1711990;82;21361;-74
2022/03/06 00:13:43;;;;;;;3.50;2.40;;;;;;;0.05;67.30;100724.72;1711137;83;21017;-74
2022/03/06 00:16:10;;;;;;;4.70;2.58;;;;;;;0.03;67.41;100722.17;1710741;83;21925;-75
2022/03/06 00:18:39;;;;;;;4.50;2.72;;;;;;;0.01;67.53;100725.72;1710575;83;21018;-75
2022/03/06 00:21:07;;;;;;;4.50;2.62;;;;;;;-0.03;67.67;100736.62;1710801;84;21043;-75
2022/03/06 00:23:34;;;;;;;3.67;2.45;;;;;;;-0.06;67.81;100733.68;1712767;83;21013;-74
2022/03/06 00:26:03;;;;;;;4.62;2.67;;;;;;;-0.06;67.90;100738.87;1711857;83;20994;-75
2022/03/06 00:28:30;;;;;;;3.80;2.75;;;;;;;-0.10;67.96;100732.05;1711594;83;21461;-74
2022/03/06 00:30:57;;;;;;;3.40;2.45;;;;;;;-0.12;68.05;100737.75;1710804;83;20947;-74
2022/03/06 00:33:25;;;;;;;6.50;2.80;;;;;;;-0.17;68.19;100735.75;1710702;83;20958;-74
2022/03/06 00:35:52;;;;;;;3.90;2.37;;;;;;;-0.19;68.39;100735.37;1676282;85;21002;-74
2022/03/06 00:38:19;;;;;;;3.85;2.67;;;;;;;-0.23;68.46;100739.81;1676358;84;21442;-74
2022/03/06 00:40:47;;;;;;;5.17;3.02;;;;;;;-0.24;68.56;100747.65;1676340;85;22538;-74
2022/03/06 00:43:15;;;;;;;4.85;3.33;;;;;;;-0.25;68.68;100746.80;1677924;85;21001;-74
2022/03/06 00:45:44;;;;;;;5.25;3.52;;;;;;;-0.26;68.66;100750.30;1678538;85;21008;-74
2022/03/06 00:48:11;;;;;;;5.58;3.55;;;;;;;-0.24;68.66;100747.20;1678610;85;21040;-74
2022/03/06 00:50:39;;;;;;;5.42;3.52;;;;;;;-0.22;68.70;100745.41;1681156;85;21016;-73
2022/03/06 00:53:07;;;;;;;5.12;3.55;;;;;;;-0.21;68.72;100748.40;1681604;85;21797;-74
2022/03/06 00:55:35;;;;;;;4.95;3.58;;;;;;;-0.21;68.76;100744.50;1679469;85;20942;-74
2022/03/06 00:58:09;;;;;;;5.40;3.20;;;;;;;-0.21;68.75;100751.44;1677337;85;21001;-74
2022/03/06 01:00:39;;;;;;;3.70;2.70;;;;;;;-0.23;68.80;100754.09;1678688;84;21535;-75
2022/03/06 01:03:13;;;;;;;7.05;2.87;;;;;;;-0.25;68.87;100750.69;1678635;85;20961;-74
2022/03/06 01:05:41;;;;;;;5.12;3.00;;;;;;;-0.29;68.98;100749.06;1678496;85;22591;-74
2022/03/06 01:08:09;;;;;;;5.25;3.27;;;;;;;-0.31;69.07;100753.45;1678403;85;21040;-74
2022/03/06 01:10:38;;;;;;;5.42;2.90;;;;;;;-0.33;69.10;100748.31;1678726;85;21012;-74
2022/03/06 01:13:08;;;;;;;4.53;3.25;;;;;;;-0.32;69.14;100748.71;1678441;85;20969;-74
2022/03/06 01:15:36;;;;;;;4.87;3.50;;;;;;;-0.31;69.19;100750.86;1678646;85;20949;-74
2022/03/06 01:18:06;;;;;;;4.35;2.80;;;;;;;-0.32;69.21;100750.02;1683902;84;21829;-75
2022/03/06 01:20:34;;;;;;;5.17;3.10;;;;;;;-0.33;69.21;100753.50;1683936;85;21453;-75
2022/03/06 01:23:02;;;;;;;6.47;2.60;;;;;;;-0.35;69.25;100757.89;1714924;82;21056;-75
2022/03/06 01:25:29;;;;;;;3.77;2.80;;;;;;;-0.37;69.35;100754.50;1711826;83;21047;-75
2022/03/06 01:27:57;;;;;;;5.42;2.95;;;;;;;-0.39;69.42;100754.11;1711682;83;20942;-75
2022/03/06 01:30:25;;;;;;;4.65;3.10;;;;;;;-0.42;69.40;100764.14;1712304;83;21921;-74
2022/03/06 01:32:53;;;;;;;5.05;2.95;;;;;;;-0.43;69.39;100763.74;1710690;84;20993;-74
2022/03/06 01:35:20;;;;;;;4.60;2.83;;;;;;;-0.46;69.45;100757.34;1710702;82;21428;-74
2022/03/06 01:37:47;;;;;;;4.87;3.17;;;;;;;-0.48;69.52;100754.37;1710634;83;20977;-75
2022/03/06 01:40:15;;;;;;;4.53;3.02;;;;;;;-0.52;69.63;100759.25;1710656;83;21123;-75
2022/03/06 01:42:42;;;;;;;5.03;3.50;;;;;;;-0.54;69.70;100761.05;1710746;83;21994;-75
2022/03/06 01:45:12;;;;;;;5.67;3.40;;;;;;;-0.56;69.80;100768.03;1676173;85;21008;-74
2022/03/06 01:47:45;;;;;;;5.25;3.30;;;;;;;-0.61;69.87;100761.20;1678027;85;21521;-73
2022/03/06 01:50:21;;;;;;;4.17;3.02;;;;;;;-0.62;69.97;100763.84;1678655;84;21000;-74
2022/03/06 01:52:51;;;;;;;3.87;2.80;;;;;;;-0.62;69.91;100758.66;1678482;84;20961;-74
2022/03/06 01:55:19;;;;;;;5.70;3.40;;;;;;;-0.61;69.85;100757.76;1679013;84;21981;-74
2022/03/06 01:57:47;;;;;;;4.22;3.05;;;;;;;-0.61;69.80;100759.06;1713060;82;20958;-73
2022/03/06 02:00:17;;;;;;;4.10;2.83;;;;;;;-0.59;69.80;100760.70;1712201;82;20970;-74
2022/03/06 02:02:46;;;;;;;6.65;3.20;;;;;;;-0.59;69.82;100759.41;1712181;82;20954;-73
2022/03/06 02:05:13;;;;;;;6.03;2.83;;;;;;;-0.59;69.82;100763.30;1711714;83;21049;-74
2022/03/06 02:07:40;;;;;;;4.90;3.00;;;;;;;-0.63;69.91;100766.03;1677839;85;22388;-74
2022/03/06 02:10:09;;;;;;;4.45;2.90;;;;;;;-0.65;70.03;100763.48;1678450;84;21572;-75
2022/03/06 02:12:37;;;;;;;4.50;2.98;;;;;;;-0.66;70.08;100756.60;1678435;85;20949;-74
2022/03/06 02:15:07;;;;;;;4.87;2.90;;;;;;;-0.63;70.05;100755.21;1678408;85;20961;-74
2022/03/06 02:17:37;;;;;;;5.35;3.08;;;;;;;-0.61;70.03;100759.06;1678430;84;20997;-74
2022/03/06 02:20:10;;;;;;;4.70;2.90;;;;;;;-0.61;70.02;100758.61;1678588;84;21776;-74
2022/03/06 02:22:41;;;;;;;5.10;2.95;;;;;;;-0.62;70.12;100759.95;1678394;85;21401;-74
2022/03/06 02:25:12;;;;;;;3.60;2.70;;;;;;;-0.64;70.17;100758.70;1678744;85;20985;-74
2022/03/06 02:27:41;;;;;;;5.08;2.80;;;;;;;-0.63;70.28;100759.55;1678312;85;21085;-74
2022/03/06 02:30:12;;;;;;;3.83;2.90;;;;;;;-0.64;70.35;100767.78;1677902;84;21040;-74
2022/03/06 02:32:40;;;;;;;5.80;3.33;;;;;;;-0.63;70.37;100768.63;1712665;83;22546;-74
2022/03/06 02:35:08;;;;;;;4.58;3.10;;;;;;;-0.63;70.45;100777.27;1713291;83;20950;-74
2022/03/06 02:37:35;;;;;;;3.90;2.80;;;;;;;-0.62;70.47;100776.81;1712851;83;21472;-74
2022/03/06 02:40:04;;;;;;;4.25;3.00;;;;;;;-0.63;70.52;100782.45;1678249;85;21511;-74
2022/03/06 02:42:34;;;;;;;5.00;3.40;;;;;;;-0.65;70.60;100785.54;1711600;83;21020;-75
2022/03/06 02:45:20;;;;;;;5.37;3.27;;;;;;;-0.65;70.63;100785.98;1678329;85;21955;-75
2022/03/06 02:47:47;;;;;;;4.75;3.12;;;;;;;-0.66;70.68;100794.22;1678554;85;20957;-75
2022/03/06 02:50:19;;;;;;;4.33;3.12;;;;;;;-0.65;70.69;100792.47;1678422;84;20972;-75
2022/03/06 02:52:46;;;;;;;4.53;3.02;;;;;;;-0.64;70.68;100791.12;1712579;82;21476;-75
2022/03/06 02:55:14;;;;;;;5.20;3.20;;;;;;;-0.63;70.67;100792.83;1712621;83;20993;-75
2022/03/06 02:57:44;;;;;;;5.15;3.10;;;;;;;-0.65;70.66;100794.62;1676600;85;21947;-75
2022/03/06 03:00:14;;;;;;;4.00;2.90;;;;;;;-0.64;70.75;100797.61;1675933;85;21484;-75
2022/03/06 03:02:44;;;;;;;4.90;2.98;;;;;;;-0.62;70.71;100804.91;1677428;85;21013;-75
2022/03/06 03:05:12;;;;;;;5.47;3.58;;;;;;;-0.63;70.49;100800.61;1678195;85;21061;-75
2022/03/06 03:07:45;;;;;;;4.75;3.33;;;;;;;-0.64;70.53;100807.99;1678528;85;22093;-75
2022/03/06 03:10:15;;;;;;;6.17;3.30;;;;;;;-0.64;70.59;100802.80;1712280;82;21945;-75
2022/03/06 03:12:43;;;;;;;4.53;3.25;;;;;;;-0.64;70.67;100800.20;1710507;84;21467;-75
2022/03/06 03:15:10;;;;;;;5.50;3.30;;;;;;;-0.64;70.72;100806.70;1676183;85;21008;-75
2022/03/06 03:17:37;;;;;;;5.65;3.52;;;;;;;-0.64;70.79;100804.55;1676258;85;20972;-75
2022/03/06 03:20:07;;;;;;;5.67;3.62;;;;;;;-0.64;70.86;100807.99;1676078;84;20957;-75
2022/03/06 03:22:34;;;;;;;6.47;3.60;;;;;;;-0.64;70.92;100807.14;1676226;85;21958;-75
2022/03/06 03:25:01;;;;;;;5.37;3.52;;;;;;;-0.64;70.97;100817.07;1677561;85;21012;-75
2022/03/06 03:27:29;;;;;;;6.22;3.50;;;;;;;-0.64;70.99;100811.03;1678241;85;21444;-75
2022/03/06 03:29:56;;;;;;;4.97;3.50;;;;;;;-0.65;71.01;100812.78;1678241;84;21007;-75
2022/03/06 03:32:23;;;;;;;4.90;3.58;;;;;;;-0.66;71.04;100818.02;1678333;85;21021;-75
2022/03/06 03:34:50;;;;;;;6.95;3.90;;;;;;;-0.67;71.08;100819.76;1712104;83;21999;-74
2022/03/06 03:37:17;;;;;;;4.78;3.30;;;;;;;-0.69;71.07;100811.59;1712637;83;20986;-75
2022/03/06 03:39:45;;;;;;;5.03;3.60;;;;;;;-0.71;71.11;100818.56;1712591;82;20950;-75
2022/03/06 03:42:12;;;;;;;6.00;3.67;;;;;;;-0.73;71.14;100819.05;1711665;83;20993;-75
2022/03/06 03:44:39;;;;;;;5.60;3.92;;;;;;;-0.75;71.17;100821.69;1677232;84;21582;-75
2022/03/06 03:47:07;;;;;;;5.97;3.90;;;;;;;-0.75;71.22;100818.25;1713204;82;21785;-75
2022/03/06 03:49:35;;;;;;;5.25;3.85;;;;;;;-0.75;71.23;100817.80;1712305;82;20974;-75
2022/03/06 03:52:02;;;;;;;6.80;3.85;;;;;;;-0.76;71.25;100818.70;1676456;85;20993;-75
2022/03/06 03:54:29;;;;;;;6.05;3.90;;;;;;;-0.76;71.27;100821.29;1678449;85;21020;-75
2022/03/06 03:56:57;;;;;;;5.62;3.70;;;;;;;-0.74;71.29;100820.80;1713341;82;20974;-75
2022/03/06 03:59:24;;;;;;;5.30;3.58;;;;;;;-0.74;71.26;100820.80;1713257;82;21774;-75
2022/03/06 04:01:52;;;;;;;5.30;3.83;;;;;;;-0.73;71.29;100818.61;1713042;82;21041;-75
2022/03/06 04:04:19;;;;;;;6.15;4.08;;;;;;;-0.72;71.31;100825.49;1711740;83;21053;-75
2022/03/06 04:06:46;;;;;;;6.30;3.90;;;;;;;-0.71;71.34;100825.05;1713104;83;21017;-75
2022/03/06 04:09:13;;;;;;;6.17;4.00;;;;;;;-0.74;71.36;100828.58;1711254;84;21018;-75
2022/03/06 04:11:40;;;;;;;5.83;3.98;;;;;;;-0.75;71.40;100832.52;1713648;83;22673;-75
2022/03/06 04:14:07;;;;;;;5.80;3.98;;;;;;;-0.77;71.43;100831.67;1712885;82;20967;-74
2022/03/06 04:16:35;;;;;;;5.22;3.65;;;;;;;-0.78;71.46;100832.12;1711188;83;21022;-75
2022/03/06 04:19:02;;;;;;;5.78;4.08;;;;;;;-0.78;71.53;100838.61;1711343;83;21009;-73
2022/03/06 04:21:30;;;;;;;5.50;3.92;;;;;;;-0.79;71.55;100833.47;1712653;83;21447;-75
2022/03/06 04:23:57;;;;;;;6.00;3.80;;;;;;;-0.78;71.58;100839.91;1711819;82;21830;-75
2022/03/06 04:26:24;;;;;;;7.83;3.92;;;;;;;-0.78;71.59;100836.02;1712360;83;21414;-75
2022/03/06 04:28:52;;;;;;;6.20;4.35;;;;;;;-0.76;71.58;100839.89;1714039;83;21060;-75
2022/03/06 04:31:19;;;;;;;7.85;4.35;;;;;;;-0.76;71.57;100836.00;1713464;83;21077;-74
2022/03/06 04:33:46;;;;;;;9.03;4.60;;;;;;;-0.75;71.63;100833.36;1713749;83;20942;-74
2022/03/06 04:36:13;;;;;;;6.42;4.47;;;;;;;-0.73;71.63;100837.20;1713781;82;21960;-75
2022/03/06 04:38:41;;;;;;;6.40;4.30;;;;;;;-0.73;71.63;100843.25;1678891;85;21001;-74
2022/03/06 04:41:09;;;;;;;7.30;4.65;;;;;;;-0.76;71.65;100845.08;1679301;84;21477;-74
2022/03/06 04:43:37;;;;;;;5.90;4.10;;;;;;;-0.80;71.71;100854.66;1679284;85;21394;-74
2022/03/06 04:46:05;;;;;;;5.83;4.10;;;;;;;-0.80;71.76;100853.80;1679469;85;21006;-74
2022/03/06 04:48:32;;;;;;;6.00;3.83;;;;;;;-0.81;71.79;100851.66;1714016;83;22008;-74
2022/03/06 04:51:00;;;;;;;5.62;3.90;;;;;;;-0.80;71.81;100848.62;1714088;83;21192;-74
2022/03/06 04:53:27;;;;;;;6.08;3.72;;;;;;;-0.80;71.75;100843.44;1714308;83;20954;-74
2022/03/06 04:55:54;;;;;;;5.72;3.80;;;;;;;-0.80;71.78;100848.17;1679228;84;20966;-74
2022/03/06 04:58:21;;;;;;;5.92;4.17;;;;;;;-0.79;71.80;100851.17;1679752;85;21017;-76
2022/03/06 05:00:48;;;;;;;8.75;3.92;;;;;;;-0.78;71.83;100852.02;1679336;85;21950;-75
2022/03/06 05:03:17;;;;;;;5.80;4.00;;;;;;;-0.78;71.85;100850.28;1679038;84;20953;-76
2022/03/06 05:05:47;;;;;;;4.58;3.58;;;;;;;-0.77;71.89;100855.02;1679433;85;20957;-75
2022/03/06 05:08:14;;;;;;;4.97;3.60;;;;;;;-0.75;71.90;100854.56;1713796;82;21160;-74
2022/03/06 05:10:42;;;;;;;6.37;3.60;;;;;;;-0.73;71.92;100854.07;1714265;83;20922;-77
2022/03/06 05:13:09;;;;;;;5.03;3.20;;;;;;;-0.70;71.93;100855.28;1714975;82;22280;-76
2022/03/06 05:15:38;;;;;;;5.12;3.60;;;;;;;-0.67;71.94;100856.52;1714839;83;20942;-77
2022/03/06 05:18:05;;;;;;;5.42;3.45;;;;;;;-0.64;71.89;100853.84;1715004;82;20970;-78
2022/03/06 05:20:32;;;;;;;5.53;3.60;;;;;;;-0.62;71.93;100853.34;1714007;83;21005;-76
2022/03/06 05:22:59;;;;;;;5.95;3.95;;;;;;;-0.58;71.88;100849.77;1713581;82;21057;-76
2022/03/06 05:25:27;;;;;;;5.97;3.37;;;;;;;-0.54;71.87;100855.30;1713682;82;22546;-76
2022/03/06 05:27:55;;;;;;;6.50;3.60;;;;;;;-0.52;71.83;100856.55;1679306;85;20938;-76
2022/03/06 05:30:22;;;;;;;5.35;3.47;;;;;;;-0.48;71.88;100858.16;1714098;83;21049;-76
2022/03/06 05:32:49;;;;;;;5.20;3.52;;;;;;;-0.44;71.85;100859.80;1678978;85;20953;-73
2022/03/06 05:35:16;;;;;;;4.97;3.02;;;;;;;-0.40;71.85;100860.96;1678588;85;20953;-75
2022/03/06 05:37:44;;;;;;;4.12;2.87;;;;;;;-0.34;71.70;100859.52;1679346;85;21942;-74
2022/03/06 05:40:11;;;;;;;4.97;2.98;;;;;;;-0.29;71.37;100865.86;1678660;85;21068;-74
2022/03/06 05:42:39;;;;;;;4.17;2.75;;;;;;;-0.24;71.22;100867.05;1678768;85;21009;-74
2022/03/06 05:45:06;;;;;;;4.05;2.83;;;;;;;-0.20;71.04;100864.32;1679022;84;21429;-74
2022/03/06 05:47:33;;;;;;;3.27;2.10;;;;;;;-0.14;70.81;100862.87;1679335;84;21049;-74
2022/03/06 05:50:00;;;;;;;3.47;2.08;;;;;;;-0.11;70.09;100867.97;1678887;85;21920;-74
2022/03/06 05:52:27;;;;;;;3.20;2.17;;;;;;;-0.10;69.75;100865.77;1678826;85;21425;-75
2022/03/06 05:54:54;;;;;;;3.80;2.33;;;;;;;-0.05;69.65;100863.06;1679201;85;20957;-74
2022/03/06 05:57:21;;;;;;;3.10;2.25;;;;;;;0.02;69.57;100869.80;1679169;85;21080;-74
2022/03/06 05:59:48;;;;;;;5.92;3.65;;;;;;;0.07;69.42;100870.50;1679074;85;20997;-75
2022/03/06 06:02:15;;;;;;;7.00;4.33;;;;;;;0.13;69.32;100877.28;1678729;85;22330;-74
2022/03/06 06:04:43;;;;;;;7.72;4.47;;;;;;;0.17;69.03;100882.33;1679605;83;21115;-74
2022/03/06 06:07:10;;;;;;;5.80;3.72;;;;;;;0.21;68.67;100868.83;1679216;85;21061;-75
2022/03/06 06:09:37;;;;;;;5.03;2.83;;;;;;;0.25;68.45;100876.47;1678829;85;20978;-74
2022/03/06 06:12:07;;;;;;;4.65;2.40;;;;;;;0.32;68.15;100884.09;1679156;85;21005;-75
2022/03/06 06:14:34;;;;;;;5.20;3.37;;;;;;;0.37;67.82;100883.50;1713618;83;21830;-74
2022/03/06 06:17:01;;;;;;;7.87;4.70;;;;;;;0.41;67.83;100882.08;1713601;82;21001;-74
2022/03/06 06:19:29;;;;;;;14.20;8.23;;;;;;;0.45;67.66;100877.19;1713674;83;21421;-74
2022/03/06 06:21:56;;;;;;;4.97;3.30;;;;;;;0.52;67.55;100880.47;1713532;82;21460;-74
2022/03/06 06:24:23;;;;;;;4.58;2.70;;;;;;;0.57;67.26;100882.01;1714231;82;21006;-75
2022/03/06 06:26:53;;;;;;;3.85;2.58;;;;;;;0.60;67.12;100877.19;1678760;85;22573;-73
2022/03/06 06:29:19;;;;;;;4.33;2.35;;;;;;;0.65;66.81;100875.73;1713718;82;20989;-75
2022/03/06 06:31:47;;;;;;;4.42;2.55;;;;;;;0.64;66.41;100879.23;1713268;83;21010;-74
2022/03/06 06:34:15;;;;;;;21.23;12.63;;;;;;;0.62;66.18;100878.44;1703104;83;20974;-75
2022/03/06 06:36:41;;;;;;;14.78;9.40;;;;;;;0.64;66.16;100887.03;1712983;83;21017;-74
2022/03/06 06:39:09;;;;;;;7.97;5.47;;;;;;;0.67;65.92;100881.73;1712990;82;21761;-74
2022/03/06 06:41:38;;;;;;;5.53;3.37;;;;;;;0.70;65.85;100884.26;1712864;82;20993;-74
2022/03/06 06:44:06;;;;;;;14.80;10.05;;;;;;;0.72;65.61;100895.45;1713162;83;20950;-75
2022/03/06 06:46:33;;;;;;;6.40;3.85;;;;;;;0.72;65.33;100888.95;1713015;83;20965;-74
2022/03/06 06:49:00;;;;;;;8.58;5.08;;;;;;;0.72;65.17;100887.20;1713250;82;21049;-75
2022/03/06 06:51:28;;;;;;;8.80;5.25;;;;;;;0.75;65.29;100883.20;1713113;83;21800;-75
2022/03/06 06:53:55;;;;;;;20.65;9.78;;;;;;;0.81;65.11;100887.38;1712818;83;20950;-74
2022/03/06 06:56:21;;;;;;;71.62;33.42;;;;;;;0.81;64.67;100885.63;1713201;82;21469;-75
2022/03/06 06:58:49;;;;;;;26.73;12.65;;;;;;;0.85;64.58;100887.22;1712849;82;21445;-74
2022/03/06 07:01:17;;;;;;;9.65;4.55;;;;;;;0.93;64.51;100892.63;1713253;83;20870;-74
2022/03/06 07:03:44;;;;;;;66.17;31.45;;;;;;;1.02;64.36;100891.89;1677841;85;21932;-75
2022/03/06 07:06:11;;;;;;;21.07;11.05;;;;;;;1.07;63.95;100889.16;1713305;83;21013;-74
2022/03/06 07:08:38;;;;;;;6.92;4.03;;;;;;;1.11;63.96;100891.60;1713100;83;21014;-74
2022/03/06 07:11:06;;;;;;;9.18;5.90;;;;;;;1.14;63.57;100893.25;1713062;83;21482;-74
2022/03/06 07:13:33;;;;;;;9.60;6.10;;;;;;;1.18;63.53;100892.27;1713078;83;21016;-74
2022/03/06 07:16:00;;;;;;;5.72;4.20;;;;;;;1.25;63.66;100888.99;1713112;82;21998;-74
2022/03/06 07:18:27;;;;;;;4.58;2.83;;;;;;;1.27;63.12;100897.17;1713064;82;21389;-75
2022/03/06 07:20:55;;;;;;;40.30;23.38;;;;;;;1.30;62.98;100893.16;1713044;83;20962;-75
2022/03/06 07:23:22;;;;;;;15.93;9.55;;;;;;;1.33;62.88;100894.80;1713038;83;21017;-74
2022/03/06 07:25:49;;;;;;;23.70;14.10;;;;;;;1.35;62.37;100892.57;1713105;82;21001;-74
2022/03/06 07:28:17;;;;;;;16.15;9.43;;;;;;;1.39;62.55;100892.01;1713158;82;21846;-75
2022/03/06 07:30:44;;;;;;;30.25;16.57;;;;;;;1.47;62.49;100891.76;1678229;84;20949;-77
2022/03/06 07:33:12;;;;;;;47.67;24.35;;;;;;;1.45;61.67;100894.42;1713158;83;20978;-78
2022/03/06 07:35:39;;;;;;;42.20;20.97;;;;;;;1.47;61.69;100889.16;1713099;82;21414;-76
2022/03/06 07:38:06;;;;;;;33.48;18.48;;;;;;;1.53;61.72;100888.93;1713109;83;20946;-80
2022/03/06 07:40:33;;;;;;;14.25;7.22;;;;;;;1.57;61.29;100888.79;1713063;83;22367;-78
2022/03/06 07:43:01;;;;;;;35.78;16.67;;;;;;;1.60;60.64;100899.54;1713213;82;21432;-76
2022/03/06 07:45:28;;;;;;;11.03;5.72;;;;;;;1.63;60.56;100891.16;1713403;83;20957;-71
2022/03/06 07:47:56;;;;;;;4.83;3.05;;;;;;;1.68;59.96;100893.17;1713351;83;21027;-76
2022/03/06 07:50:23;;;;;;;3.67;2.25;;;;;;;1.71;60.21;100893.06;1678729;84;20989;-77
2022/03/06 07:52:57;;;;;;;3.05;2.10;;;;;;;1.79;59.78;100894.09;1678318;84;21971;-77
2022/03/06 07:55:19;;;;;;;5.08;3.33;;;;;;;1.86;59.75;100889.53;1676520;84;20941;-78
2022/03/06 07:57:46;;;;;;;3.22;2.20;;;;;;;1.94;59.70;100888.36;1678699;84;20969;-77
2022/03/06 08:00:15;;;;;;;3.50;2.05;;;;;;;2.07;59.84;100895.73;1713048;82;20982;-78
2022/03/06 08:02:42;;;;;;;2.58;1.80;;;;;;;2.13;59.20;100891.61;1678363;85;21508;-80
2022/03/06 08:05:09;;;;;;;3.17;2.00;;;;;;;2.15;58.47;100895.01;1713060;82;22884;-76
2022/03/06 08:07:36;;;;;;;2.60;1.75;;;;;;;2.14;58.05;100894.61;1712960;82;20965;-77
2022/03/06 08:10:06;;;;;;;7.42;4.67;;;;;;;2.12;58.30;100892.04;1713470;82;21013;-76
2022/03/06 08:12:33;;;;;;;2.80;2.00;;;;;;;2.14;58.06;100890.25;1713049;83;21041;-76
2022/03/06 08:15:01;;;;;;;3.15;2.08;;;;;;;2.13;57.81;100891.16;1713085;82;21009;-77
2022/03/06 08:17:28;;;;;;;3.40;1.85;;;;;;;2.13;57.95;100889.86;1713159;82;22681;-76
2022/03/06 08:19:55;;;;;;;2.77;1.98;;;;;;;2.21;58.18;100890.41;1712916;82;20958;-76
2022/03/06 08:22:22;;;;;;;2.98;2.05;;;;;;;2.34;58.27;100886.06;1713402;82;21006;-76
2022/03/06 08:24:49;;;;;;;3.80;2.33;;;;;;;2.41;58.12;100884.45;1713068;83;21041;-75
2022/03/06 08:27:18;;;;;;;3.77;2.77;;;;;;;2.49;58.17;100890.23;1678429;84;20957;-75
2022/03/06 08:29:45;;;;;;;3.60;2.42;;;;;;;2.55;58.25;100882.64;1678364;85;21932;-76
2022/03/06 08:32:12;;;;;;;17.67;9.73;;;;;;;2.65;58.36;100888.35;1712247;83;20994;-75
2022/03/06 08:34:41;;;;;;;9.13;5.70;;;;;;;2.77;57.62;100882.66;1710817;83;21497;-75
2022/03/06 08:37:08;;;;;;;5.87;3.62;;;;;;;2.78;57.14;100879.98;1676439;85;21420;-75
2022/03/06 08:39:35;;;;;;;3.47;2.37;;;;;;;2.80;56.42;100876.88;1678602;85;20949;-75
2022/03/06 08:42:04;;;;;;;2.90;2.00;;;;;;;2.84;56.19;100882.81;1678544;85;21976;-75
2022/03/06 08:44:33;;;;;;;3.20;1.80;;;;;;;2.94;56.08;100878.93;1658183;85;21488;-76
2022/03/06 08:47:02;;;;;;;2.10;1.40;;;;;;;3.02;55.78;100878.17;1677086;85;21012;-75
2022/03/06 08:49:29;;;;;;;1.57;1.27;;;;;;;2.99;54.27;100875.70;1678568;85;21520;-76
2022/03/06 08:51:56;;;;;;;2.00;1.45;;;;;;;2.96;53.41;100874.95;1678843;84;21009;-76
2022/03/06 08:54:24;;;;;;;2.77;1.62;;;;;;;2.91;53.40;100863.41;1678551;85;22883;-75
2022/03/06 08:56:55;;;;;;;2.60;1.75;;;;;;;2.85;54.03;100863.64;1678477;85;21013;-75
2022/03/06 08:59:22;;;;;;;2.45;1.67;;;;;;;2.91;54.74;100858.65;1678791;85;21044;-76
2022/03/06 09:01:55;;;;;;;2.62;1.82;;;;;;;3.08;54.73;100859.64;1678532;85;21112;-76
2022/03/06 09:04:19;;;;;;;1.92;1.50;;;;;;;3.21;53.40;100864.38;1677934;85;21020;-75
2022/03/06 09:06:46;;;;;;;3.58;1.50;;;;;;;3.25;53.70;100864.64;1678632;85;22554;-76
2022/03/06 09:09:15;;;;;;;2.55;1.35;;;;;;;3.28;53.30;100861.89;1678418;85;20961;-75
2022/03/06 09:11:42;;;;;;;2.08;1.30;;;;;;;3.25;52.82;100857.65;1678733;85;20989;-75
2022/03/06 09:14:09;;;;;;;2.05;1.50;;;;;;;3.22;52.49;100859.09;1678891;85;21005;-75
2022/03/06 09:16:37;;;;;;;2.25;1.37;;;;;;;3.21;52.86;100857.40;1681305;85;20954;-75
2022/03/06 09:19:04;;;;;;;2.02;1.40;;;;;;;3.21;52.13;100855.25;1660109;85;21952;-74
2022/03/06 09:21:32;;;;;;;1.77;1.37;;;;;;;3.20;51.78;100853.09;1678480;85;20968;-75
2022/03/06 09:23:59;;;;;;;2.27;1.55;;;;;;;3.21;50.91;100852.18;1679434;85;20957;-78
2022/03/06 09:26:26;;;;;;;2.47;1.50;;;;;;;3.14;50.93;100855.94;1680710;85;21417;-75
2022/03/06 09:28:54;;;;;;;2.45;1.77;;;;;;;3.09;51.32;100853.53;1680489;85;21036;-75
2022/03/06 09:31:22;;;;;;;2.83;1.75;;;;;;;3.09;52.10;100850.08;1679684;85;21813;-74
2022/03/06 09:33:49;;;;;;;2.15;1.62;;;;;;;3.07;52.69;100850.58;1715062;82;21511;-75
2022/03/06 09:36:17;;;;;;;2.08;1.67;;;;;;;2.97;53.14;100852.70;1713526;83;21489;-75
2022/03/06 09:38:44;;;;;;;2.50;1.80;;;;;;;2.93;53.27;100853.75;1713788;83;21001;-75
2022/03/06 09:41:17;;;;;;;2.87;1.75;;;;;;;2.87;53.12;100853.53;1713219;83;21005;-74
2022/03/06 09:43:44;;;;;;;2.70;1.90;;;;;;;2.85;53.49;100855.36;1712904;83;21954;-74
2022/03/06 09:46:12;;;;;;;2.62;1.80;;;;;;;2.84;52.69;100851.52;1715136;83;21030;-75
2022/03/06 09:48:39;;;;;;;2.37;1.60;;;;;;;2.83;53.46;100855.03;1713870;82;20990;-75
2022/03/06 09:51:06;;;;;;;2.40;1.55;;;;;;;2.84;52.37;100857.58;1713472;83;20958;-75
2022/03/06 09:53:35;;;;;;;2.10;1.50;;;;;;;2.81;52.59;100861.63;1713711;83;20926;-75
2022/03/06 09:56:02;;;;;;;2.40;1.70;;;;;;;2.81;52.27;100857.71;1714183;82;22227;-75
2022/03/06 09:58:34;;;;;;;2.60;1.65;;;;;;;2.82;52.79;100850.27;1712574;83;21005;-75
2022/03/06 10:01:02;;;;;;;3.05;1.72;;;;;;;2.86;53.26;100853.59;1713078;83;21002;-75
2022/03/06 10:03:37;;;;;;;3.10;1.72;;;;;;;2.94;53.26;100849.38;1712523;83;21046;-75
2022/03/06 10:06:05;;;;;;;2.55;1.65;;;;;;;3.05;52.77;100855.02;1676341;85;21065;-76
2022/03/06 10:08:35;;;;;;;1.95;1.52;;;;;;;3.06;51.59;100848.42;1712481;83;21429;-75
2022/03/06 10:11:11;;;;;;;1.95;1.20;;;;;;;3.09;51.91;100848.77;1712217;83;21052;-74
2022/03/06 10:13:43;;;;;;;1.52;1.00;;;;;;;3.19;50.80;100849.25;1677021;85;20977;-74
2022/03/06 10:16:20;;;;;;;2.12;1.20;;;;;;;3.26;50.33;100844.14;1678293;85;21079;-74
2022/03/06 10:18:54;;;;;;;1.30;1.02;;;;;;;3.34;49.67;100852.05;1678081;85;21092;-75
2022/03/06 10:21:27;;;;;;;1.57;1.15;;;;;;;3.42;49.42;100844.75;1678580;85;21895;-75
2022/03/06 10:24:05;;;;;;;1.47;1.07;;;;;;;3.53;48.33;100842.98;1678814;85;21452;-75
2022/03/06 10:26:33;;;;;;;4.83;1.85;;;;;;;3.56;46.74;100839.38;1711926;82;21544;-75
2022/03/06 10:29:09;;;;;;;2.92;1.85;;;;;;;3.59;46.79;100840.12;1711129;83;21038;-74
2022/03/06 10:31:35;;;;;;;4.05;2.05;;;;;;;3.61;47.19;100843.51;1702314;83;21092;-75
2022/03/06 10:34:07;;;;;;;4.35;2.98;;;;;;;3.57;46.69;100842.38;1713344;83;21973;-74
2022/03/06 10:36:42;;;;;;;4.08;2.60;;;;;;;3.53;46.91;100837.76;1712284;83;21014;-75
2022/03/06 10:39:21;;;;;;;2.33;1.55;;;;;;;3.52;45.57;100836.52;1711579;83;20966;-75
2022/03/06 10:41:54;;;;;;;3.52;2.20;;;;;;;3.51;45.33;100837.44;1712490;83;21026;-75
2022/03/06 10:44:30;;;;;;;2.65;1.75;;;;;;;3.52;46.35;100827.37;1711222;83;20990;-76
2022/03/06 10:47:04;;;;;;;2.27;1.70;;;;;;;3.60;46.42;100826.14;1707861;83;21941;-75
2022/03/06 10:49:32;;;;;;;2.35;1.40;;;;;;;3.65;46.06;100823.31;1712222;83;21013;-74
2022/03/06 10:52:20;;;;;;;2.10;1.40;;;;;;;3.58;45.54;100821.91;1712071;82;21009;-75
2022/03/06 10:54:55;;;;;;;2.37;1.60;;;;;;;3.46;45.61;100825.87;1711213;82;20970;-76
2022/03/06 10:57:23;;;;;;;1.70;1.20;;;;;;;3.31;44.46;100818.70;1712962;82;21551;-76
2022/03/06 10:59:55;;;;;;;3.62;1.42;;;;;;;3.23;45.43;100824.70;1711400;82;21867;-76
2022/03/06 11:02:24;;;;;;;3.00;1.60;;;;;;;3.16;45.83;100820.18;1657354;85;21048;-75
2022/03/06 11:04:53;;;;;;;2.42;1.50;;;;;;;3.15;45.37;100817.18;1711784;83;21448;-75
2022/03/06 11:07:21;;;;;;;2.52;1.57;;;;;;;3.16;46.41;100812.35;1677901;84;21060;-76
2022/03/06 11:09:48;;;;;;;1.80;1.40;;;;;;;3.23;46.53;100808.58;1678562;85;20953;-73
2022/03/06 11:12:17;;;;;;;2.60;1.90;;;;;;;3.33;47.14;100805.97;1678407;85;21868;-76
2022/03/06 11:14:44;;;;;;;1.90;1.50;;;;;;;3.40;45.59;100804.80;1678243;85;20993;-76
2022/03/06 11:17:11;;;;;;;2.12;1.40;;;;;;;3.41;45.10;100800.42;1678091;85;20997;-76
2022/03/06 11:19:38;;;;;;;2.65;1.60;;;;;;;3.38;44.77;100805.33;1678115;85;21009;-75
2022/03/06 11:22:19;;;;;;;3.02;1.60;;;;;;;3.44;44.71;100797.67;1678244;85;21001;-76
2022/03/06 11:24:56;;;;;;;2.85;1.50;;;;;;;3.60;45.01;100794.80;1712606;83;21966;-76
2022/03/06 11:28:03;;;;;;;2.02;1.40;;;;;;;3.73;43.80;100796.40;1710983;83;21469;-76
2022/03/06 11:30:30;;;;;;;2.27;1.50;;;;;;;3.59;43.34;100799.63;1713207;82;21045;-76
2022/03/06 11:33:07;;;;;;;3.40;2.20;;;;;;;3.37;43.83;100801.45;1677052;84;20957;-76
2022/03/06 11:35:43;;;;;;;3.47;2.35;;;;;;;3.26;43.81;100795.84;1678460;85;21020;-75